Time;durP1;ratioP1;P1;durP2;ratioP2;P2;SDS_P1;SDS_P2;PMS_P1;PMS_P2;Temp;Humidity;BMP_temperature;BMP_pressure;BME280_temperature;BME280_humidity;BME280_pressure;Samples;Min_cycle;Max_cycle;Signal;HPM_P1;HPM_P2
2021/04/29 10:20:21;;;;;;;7.43;2.80;;;;;;;;;;5114028;27;20426;-76
2021/04/29 10:22:47;;;;;;;10.75;3.33;;;;;;;;;;5079630;28;20020;-73
2021/04/29 10:25:12;;;;;;;6.93;3.00;;;;;;;;;;5087159;28;20024;-75
2021/04/29 10:27:43;;;;;;;7.93;3.47;;;;;;;;;;5086505;28;20067;-76
2021/04/29 10:30:09;;;;;;;7.15;2.95;;;;;;;;;;5070379;28;20061;-75
2021/04/29 10:34:11;;;;;;;14.05;3.13;;;;;;;;;;5101939;27;88290;-75
2021/04/29 10:36:47;;;;;;;6.88;3.22;;;;;;;;;;5041947;28;68592;-77
2021/04/29 10:39:19;;;;;;;11.20;3.72;;;;;;;;;;5043487;28;20044;-78
2021/04/29 10:42:12;;;;;;;4.40;2.55;;;;;;;;;;5071275;28;77250;-77
2021/04/29 10:44:47;;;;;;;9.80;2.95;;;;;;;;;;5073721;28;20387;-76
2021/04/29 10:47:30;;;;;;;6.45;2.97;;;;;;;;;;5074835;28;20033;-76
2021/04/29 10:50:06;;;;;;;4.88;2.78;;;;;;;;;;5073991;28;20107;-76
2021/04/29 10:52:31;;;;;;;13.15;2.88;;;;;;;;;;5074898;28;20466;-77
2021/04/29 10:54:57;;;;;;;4.07;2.25;;;;;;;;;;5060981;28;20032;-77
2021/04/29 10:57:23;;;;;;;6.05;2.67;;;;;;;;;;5071366;28;20039;-77
2021/04/29 10:59:51;;;;;;;7.95;3.00;;;;;;;;;;5066377;28;20029;-76
2021/04/29 11:02:42;;;;;;;6.47;2.60;;;;;;;;;;5075215;28;20036;-78
2021/04/29 11:05:21;;;;;;;7.72;3.40;;;;;;;;;;5069108;28;20087;-76
2021/04/29 11:07:47;;;;;;;10.27;3.55;;;;;;;;;;5073468;28;20367;-76
2021/04/29 11:10:14;;;;;;;8.93;2.67;;;;;;;;;;5077230;28;20066;-76
2021/04/29 11:12:50;;;;;;;8.27;3.17;;;;;;;;;;5072576;28;20037;-75
2021/04/29 11:15:24;;;;;;;7.03;2.92;;;;;;;;;;5074501;28;20025;-75
2021/04/29 11:18:01;;;;;;;10.30;3.00;;;;;;;;;;5071202;28;20032;-76
2021/04/29 11:20:27;;;;;;;6.38;3.55;;;;;;;;;;5071316;28;20070;-76
2021/04/29 11:22:56;;;;;;;8.95;3.03;;;;;;;;;;5073863;28;20116;-75
2021/04/29 11:25:22;;;;;;;6.45;2.90;;;;;;;;;;5078678;28;20033;-75
2021/04/29 11:27:53;;;;;;;9.38;3.22;;;;;;;;;;5072829;28;20070;-76
2021/04/29 11:30:19;;;;;;;18.40;3.50;;;;;;;;;;5072310;28;20356;-75
2021/04/29 11:32:58;;;;;;;9.32;3.92;;;;;;;;;;5075288;28;20387;-75
2021/04/29 11:35:27;;;;;;;9.35;3.72;;;;;;;;;;5074099;28;20024;-75
2021/04/29 11:37:53;;;;;;;7.60;3.35;;;;;;;;;;5071311;28;20037;-75
2021/04/29 11:40:19;;;;;;;8.48;3.20;;;;;;;;;;5072423;28;20035;-76
2021/04/29 11:42:54;;;;;;;15.20;2.97;;;;;;;;;;5071072;28;20114;-77
2021/04/29 11:45:28;;;;;;;16.83;3.30;;;;;;;;;;5057332;28;20082;-76
2021/04/29 11:47:55;;;;;;;7.22;3.10;;;;;;;;;;5068066;28;20037;-76
2021/04/29 11:50:22;;;;;;;7.43;3.63;;;;;;;;;;5058902;28;20035;-76
2021/04/29 11:52:49;;;;;;;9.70;3.45;;;;;;;;;;5058574;28;20501;-78
2021/04/29 11:55:23;;;;;;;6.68;2.83;;;;;;;;;;5058933;28;20036;-76
2021/04/29 11:57:49;;;;;;;11.13;3.40;;;;;;;;;;5058395;28;20116;-76
2021/04/29 12:00:15;;;;;;;12.48;4.13;;;;;;;;;;5058684;28;20440;-76
2021/04/29 12:02:40;;;;;;;11.85;3.50;;;;;;;;;;5058199;28;20375;-76
2021/04/29 12:05:06;;;;;;;6.80;2.92;;;;;;;;;;5058108;28;20477;-75
2021/04/29 12:07:41;;;;;;;13.20;3.33;;;;;;;;;;5057609;28;20024;-76
2021/04/29 12:10:07;;;;;;;7.75;3.08;;;;;;;;;;5055850;28;20021;-78
2021/04/29 12:12:33;;;;;;;5.20;2.75;;;;;;;;;;5057055;28;20043;-76
2021/04/29 12:14:58;;;;;;;9.25;3.13;;;;;;;;;;5058620;28;20033;-77
2021/04/29 12:17:26;;;;;;;10.80;3.65;;;;;;;;;;5045921;28;20029;-76
2021/04/29 12:19:53;;;;;;;7.05;2.80;;;;;;;;;;5034811;28;20040;-77
2021/04/29 12:22:23;;;;;;;7.68;3.45;;;;;;;;;;5032561;28;20090;-76
2021/04/29 12:24:49;;;;;;;9.45;3.20;;;;;;;;;;5059021;28;20029;-79
2021/04/29 12:27:22;;;;;;;6.05;3.42;;;;;;;;;;5060619;28;20085;-77
2021/04/29 12:30:03;;;;;;;6.43;3.15;;;;;;;;;;5060093;28;20025;-76
2021/04/29 12:32:43;;;;;;;6.40;3.13;;;;;;;;;;5059771;28;20051;-78
2021/04/29 12:35:10;;;;;;;6.95;2.97;;;;;;;;;;5060372;28;20493;-78
2021/04/29 12:37:36;;;;;;;11.20;3.42;;;;;;;;;;5044014;28;20108;-78
2021/04/29 12:40:03;;;;;;;17.80;2.90;;;;;;;;;;5038229;28;20469;-77
2021/04/29 12:42:29;;;;;;;10.10;3.28;;;;;;;;;;5053752;28;20112;-78
2021/04/29 12:45:03;;;;;;;4.80;2.70;;;;;;;;;;5040386;28;20143;-77
2021/04/29 12:47:34;;;;;;;6.45;3.15;;;;;;;;;;5045442;28;20036;-76
2021/04/29 12:50:08;;;;;;;6.80;3.10;;;;;;;;;;5036904;28;20179;-76
2021/04/29 12:52:51;;;;;;;5.68;2.75;;;;;;;;;;5036648;28;20067;-75
2021/04/29 12:55:20;;;;;;;7.93;3.08;;;;;;;;;;5046748;28;20094;-74
2021/04/29 12:57:45;;;;;;;8.10;3.40;;;;;;;;;;5053268;28;20036;-75
2021/04/29 13:00:12;;;;;;;6.30;3.40;;;;;;;;;;5049833;28;20029;-75
2021/04/29 13:02:38;;;;;;;7.90;2.92;;;;;;;;;;5056190;28;20347;-75
2021/04/29 13:05:06;;;;;;;5.55;2.90;;;;;;;;;;5055868;28;20524;-75
2021/04/29 13:07:34;;;;;;;9.60;2.78;;;;;;;;;;5056342;28;20064;-75
2021/04/29 13:10:01;;;;;;;10.57;3.47;;;;;;;;;;5056672;28;20057;-75
2021/04/29 13:12:27;;;;;;;6.35;2.95;;;;;;;;;;5056093;28;20371;-74
2021/04/29 13:15:02;;;;;;;7.75;2.80;;;;;;;;;;5057149;28;20033;-74
2021/04/29 13:17:28;;;;;;;9.73;3.00;;;;;;;;;;5054224;28;20071;-78
2021/04/29 13:20:04;;;;;;;4.95;2.72;;;;;;;;;;5055389;28;20036;-77
2021/04/29 13:22:30;;;;;;;7.00;3.20;;;;;;;;;;5056029;28;20080;-76
2021/04/29 13:25:00;;;;;;;8.32;2.58;;;;;;;;;;5057388;28;20060;-77
2021/04/29 13:27:26;;;;;;;12.48;3.38;;;;;;;;;;5058781;28;20032;-76
2021/04/29 13:29:52;;;;;;;7.07;3.70;;;;;;;;;;5058213;28;20032;-76
2021/04/29 13:32:17;;;;;;;6.70;2.97;;;;;;;;;;5053335;28;20052;-76
2021/04/29 13:34:43;;;;;;;37.50;6.05;;;;;;;;;;5053442;28;20031;-78
2021/04/29 13:37:09;;;;;;;31.33;4.70;;;;;;;;;;5053373;28;20037;-79
2021/04/29 13:39:34;;;;;;;28.48;4.47;;;;;;;;;;5056668;28;20387;-78
2021/04/29 13:42:00;;;;;;;56.50;5.78;;;;;;;;;;5055678;28;20027;-80
2021/04/29 13:44:25;;;;;;;43.72;4.63;;;;;;;;;;5042615;28;20039;-78
2021/04/29 13:46:51;;;;;;;27.30;5.47;;;;;;;;;;5051018;28;20033;-78
2021/04/29 13:49:17;;;;;;;21.73;5.10;;;;;;;;;;5056287;28;20029;-83
2021/04/29 13:51:44;;;;;;;26.50;4.40;;;;;;;;;;5055843;28;20116;-84
2021/04/29 13:54:11;;;;;;;21.65;4.18;;;;;;;;;;5057455;28;20040;-81
2021/04/29 13:56:36;;;;;;;26.83;4.95;;;;;;;;;;5037637;28;20028;-81
2021/04/29 13:59:02;;;;;;;25.35;4.72;;;;;;;;;;5055501;28;20029;-82
2021/04/29 14:01:27;;;;;;;22.85;3.58;;;;;;;;;;5055726;28;20028;-81
2021/04/29 14:03:52;;;;;;;25.70;4.20;;;;;;;;;;5055725;28;20028;-82
2021/04/29 14:06:18;;;;;;;21.65;3.90;;;;;;;;;;5054467;28;20443;-81
2021/04/29 14:08:44;;;;;;;13.88;3.60;;;;;;;;;;5055128;28;20442;-81
2021/04/29 14:11:10;;;;;;;14.18;3.63;;;;;;;;;;5055390;28;20044;-81
2021/04/29 14:13:35;;;;;;;10.90;2.92;;;;;;;;;;5055312;28;20025;-81
2021/04/29 14:16:02;;;;;;;18.00;3.55;;;;;;;;;;5054825;28;20044;-81
2021/04/29 14:18:28;;;;;;;12.48;3.20;;;;;;;;;;5055454;28;20047;-81
2021/04/29 14:20:56;;;;;;;29.13;3.60;;;;;;;;;;5053962;28;20147;-80
2021/04/29 14:23:21;;;;;;;15.35;3.53;;;;;;;;;;5055813;28;20043;-81
2021/04/29 14:25:48;;;;;;;12.77;2.65;;;;;;;;;;5055519;28;20037;-82
2021/04/29 14:28:13;;;;;;;8.13;3.10;;;;;;;;;;5055990;28;20155;-81
2021/04/29 14:30:39;;;;;;;8.52;3.45;;;;;;;;;;5055437;28;20025;-81
2021/04/29 14:33:05;;;;;;;9.70;3.25;;;;;;;;;;5056022;28;20041;-82
2021/04/29 14:35:31;;;;;;;9.40;3.20;;;;;;;;;;5049610;28;20036;-82
2021/04/29 14:37:56;;;;;;;7.90;3.00;;;;;;;;;;5041390;28;20079;-82
2021/04/29 14:40:22;;;;;;;9.30;3.08;;;;;;;;;;5040808;28;20025;-82
2021/04/29 14:42:47;;;;;;;12.95;3.42;;;;;;;;;;5038577;28;20379;-82
2021/04/29 14:45:15;;;;;;;8.90;3.40;;;;;;;;;;5046824;28;20036;-81
2021/04/29 14:47:41;;;;;;;6.40;3.20;;;;;;;;;;5049633;28;20033;-82
2021/04/29 14:50:07;;;;;;;7.40;2.60;;;;;;;;;;5048822;28;20447;-81
2021/04/29 14:52:32;;;;;;;8.82;2.90;;;;;;;;;;5042176;28;20033;-81
2021/04/29 14:54:58;;;;;;;5.07;2.90;;;;;;;;;;5054848;28;20021;-81
2021/04/29 14:57:23;;;;;;;6.93;3.10;;;;;;;;;;5055553;28;20443;-81
2021/04/29 14:59:49;;;;;;;6.30;2.67;;;;;;;;;;5055340;28;20406;-80
2021/04/29 15:02:15;;;;;;;6.97;2.65;;;;;;;;;;5055155;28;20480;-81
2021/04/29 15:04:40;;;;;;;5.57;3.10;;;;;;;;;;5055250;28;20029;-81
2021/04/29 15:07:08;;;;;;;9.30;2.70;;;;;;;;;;5054891;28;20051;-81
2021/04/29 15:09:33;;;;;;;6.15;2.83;;;;;;;;;;5054275;28;20037;-80
2021/04/29 15:11:59;;;;;;;6.00;2.90;;;;;;;;;;5057253;28;20047;-81
2021/04/29 15:14:24;;;;;;;4.50;2.55;;;;;;;;;;5040253;28;20021;-81
2021/04/29 15:16:50;;;;;;;8.27;2.78;;;;;;;;;;5053527;28;20029;-80
2021/04/29 15:19:16;;;;;;;7.50;3.00;;;;;;;;;;5057151;28;20064;-81
2021/04/29 15:21:41;;;;;;;5.35;2.25;;;;;;;;;;5058451;28;20031;-78
2021/04/29 15:24:07;;;;;;;8.43;2.97;;;;;;;;;;5058132;28;20447;-78
2021/04/29 15:26:33;;;;;;;8.18;3.17;;;;;;;;;;5058042;28;20059;-78
2021/04/29 15:29:00;;;;;;;7.28;2.80;;;;;;;;;;5041295;28;20399;-77
2021/04/29 15:31:26;;;;;;;7.43;2.83;;;;;;;;;;5051027;28;20032;-78
2021/04/29 15:33:55;;;;;;;6.38;2.65;;;;;;;;;;5053077;28;20029;-79
2021/04/29 15:36:21;;;;;;;6.22;2.60;;;;;;;;;;5056363;28;20021;-78
2021/04/29 15:38:46;;;;;;;8.98;2.92;;;;;;;;;;5058113;28;20384;-78
2021/04/29 15:41:12;;;;;;;5.90;2.85;;;;;;;;;;5058263;28;20028;-79
2021/04/29 15:43:38;;;;;;;7.57;2.72;;;;;;;;;;5057351;28;20463;-78
2021/04/29 15:46:04;;;;;;;5.95;2.90;;;;;;;;;;5057246;28;20348;-78
2021/04/29 15:48:30;;;;;;;4.13;2.47;;;;;;;;;;5054922;28;20060;-79
2021/04/29 15:51:00;;;;;;;5.60;2.80;;;;;;;;;;5057932;28;20031;-79
2021/04/29 15:53:26;;;;;;;5.80;3.20;;;;;;;;;;5055434;28;20036;-80
2021/04/29 15:55:52;;;;;;;5.85;2.60;;;;;;;;;;5057686;28;20109;-79
2021/04/29 15:58:17;;;;;;;7.57;2.83;;;;;;;;;;5057835;28;20029;-79
2021/04/29 16:00:43;;;;;;;4.60;2.72;;;;;;;;;;5059047;28;20451;-79
2021/04/29 16:03:09;;;;;;;8.23;2.80;;;;;;;;;;5039173;28;20033;-79
2021/04/29 16:05:35;;;;;;;4.93;2.30;;;;;;;;;;5056486;28;20033;-79
2021/04/29 16:08:00;;;;;;;6.20;2.25;;;;;;;;;;5051362;28;20036;-79
2021/04/29 16:10:25;;;;;;;9.90;2.63;;;;;;;;;;5056800;28;20047;-79
2021/04/29 16:12:51;;;;;;;4.90;2.63;;;;;;;;;;5057189;28;20017;-79
2021/04/29 16:15:16;;;;;;;4.35;2.42;;;;;;;;;;5057292;28;20032;-79
2021/04/29 16:17:42;;;;;;;6.30;2.45;;;;;;;;;;5054697;28;20024;-79
2021/04/29 16:20:08;;;;;;;6.88;2.58;;;;;;;;;;5056847;28;20048;-79
2021/04/29 16:22:34;;;;;;;7.60;2.55;;;;;;;;;;5056725;28;20044;-79
2021/04/29 16:24:59;;;;;;;5.60;2.60;;;;;;;;;;5056995;28;20041;-79
2021/04/29 16:27:25;;;;;;;4.70;2.28;;;;;;;;;;5053943;28;20033;-79
2021/04/29 16:29:50;;;;;;;4.28;2.17;;;;;;;;;;5055312;28;20041;-79
2021/04/29 16:32:19;;;;;;;3.40;2.05;;;;;;;;;;5057130;28;20041;-78
2021/04/29 16:34:44;;;;;;;5.57;2.65;;;;;;;;;;5057098;28;20033;-79
2021/04/29 16:37:10;;;;;;;7.55;2.60;;;;;;;;;;5056753;28;20421;-79
2021/04/29 16:39:36;;;;;;;4.88;2.40;;;;;;;;;;5054155;28;20455;-79
2021/04/29 16:42:02;;;;;;;5.97;2.30;;;;;;;;;;5060679;28;20051;-79
2021/04/29 16:44:27;;;;;;;7.35;2.97;;;;;;;;;;5056826;28;20499;-79
2021/04/29 16:46:52;;;;;;;3.55;2.30;;;;;;;;;;5057180;28;20120;-79
2021/04/29 16:49:18;;;;;;;6.80;2.63;;;;;;;;;;5053999;28;20029;-79
2021/04/29 16:51:43;;;;;;;4.38;2.50;;;;;;;;;;5053076;28;20379;-79
2021/04/29 16:54:09;;;;;;;5.82;2.40;;;;;;;;;;5053777;28;20033;-79
2021/04/29 16:56:34;;;;;;;4.47;2.67;;;;;;;;;;5056614;28;20162;-79
2021/04/29 16:58:59;;;;;;;3.83;2.50;;;;;;;;;;5057035;28;20024;-79
2021/04/29 17:01:25;;;;;;;5.75;2.28;;;;;;;;;;5051664;28;20037;-78
2021/04/29 17:03:51;;;;;;;7.07;2.60;;;;;;;;;;5055242;28;20359;-78
2021/04/29 17:06:16;;;;;;;3.13;2.10;;;;;;;;;;5055796;28;20124;-78
2021/04/29 17:08:42;;;;;;;7.78;2.95;;;;;;;;;;5055757;28;20025;-78
2021/04/29 17:11:07;;;;;;;4.18;2.05;;;;;;;;;;5055365;28;20040;-78
2021/04/29 17:13:33;;;;;;;4.15;2.47;;;;;;;;;;5055801;28;20103;-78
2021/04/29 17:15:58;;;;;;;5.30;2.60;;;;;;;;;;5056275;28;20417;-78
2021/04/29 17:18:23;;;;;;;3.63;2.15;;;;;;;;;;5057067;28;20043;-79
2021/04/29 17:20:49;;;;;;;5.10;1.95;;;;;;;;;;5054836;28;20044;-79
2021/04/29 17:23:14;;;;;;;4.20;2.05;;;;;;;;;;5055940;28;20032;-79
2021/04/29 17:25:40;;;;;;;4.72;2.33;;;;;;;;;;5058388;28;20041;-78
2021/04/29 17:28:05;;;;;;;4.18;2.20;;;;;;;;;;5055602;28;20025;-79
2021/04/29 17:30:31;;;;;;;9.63;2.70;;;;;;;;;;5055522;28;20040;-78
2021/04/29 17:32:56;;;;;;;5.03;2.40;;;;;;;;;;5050711;28;20041;-77
2021/04/29 17:35:22;;;;;;;3.78;2.10;;;;;;;;;;5055094;28;20033;-79
2021/04/29 17:37:47;;;;;;;5.05;2.78;;;;;;;;;;5039329;28;20036;-78
2021/04/29 17:40:16;;;;;;;3.00;2.40;;;;;;;;;;5055424;28;20105;-78
2021/04/29 17:42:42;;;;;;;6.72;2.80;;;;;;;;;;5055200;28;20069;-78
2021/04/29 17:45:09;;;;;;;9.10;3.08;;;;;;;;;;5055148;28;20033;-78
2021/04/29 17:47:34;;;;;;;5.50;2.65;;;;;;;;;;5055756;28;20116;-78
2021/04/29 17:50:00;;;;;;;6.07;2.72;;;;;;;;;;5055700;28;20057;-78
2021/04/29 17:52:26;;;;;;;6.10;3.60;;;;;;;;;;5055664;28;20482;-78
2021/04/29 17:54:51;;;;;;;6.45;3.60;;;;;;;;;;5060674;28;20029;-78
2021/04/29 17:57:17;;;;;;;9.57;3.65;;;;;;;;;;5048676;28;20032;-78
2021/04/29 17:59:42;;;;;;;5.68;3.30;;;;;;;;;;5055707;28;20025;-78
2021/04/29 18:02:08;;;;;;;8.93;3.33;;;;;;;;;;5059998;28;20028;-78
2021/04/29 18:04:34;;;;;;;6.47;3.22;;;;;;;;;;5054010;28;20035;-78
2021/04/29 18:06:59;;;;;;;8.00;3.50;;;;;;;;;;5055697;28;20032;-78
2021/04/29 18:09:25;;;;;;;8.30;3.65;;;;;;;;;;5056761;28;20036;-78
2021/04/29 18:11:50;;;;;;;8.07;4.22;;;;;;;;;;5054786;28;20040;-78
2021/04/29 18:14:15;;;;;;;6.28;3.55;;;;;;;;;;5054558;28;20047;-78
2021/04/29 18:16:41;;;;;;;12.23;4.07;;;;;;;;;;5054296;28;20037;-78
2021/04/29 18:19:06;;;;;;;6.90;3.75;;;;;;;;;;5054843;28;20110;-79
2021/04/29 18:21:32;;;;;;;12.98;4.20;;;;;;;;;;5055632;28;20102;-78
2021/04/29 18:23:57;;;;;;;11.35;3.60;;;;;;;;;;5055092;28;20447;-79
2021/04/29 18:26:23;;;;;;;8.65;3.90;;;;;;;;;;5055107;28;20064;-78
2021/04/29 18:28:48;;;;;;;4.97;3.60;;;;;;;;;;5057902;28;20033;-78
2021/04/29 18:31:14;;;;;;;8.32;3.30;;;;;;;;;;5058849;28;20052;-79
2021/04/29 18:33:39;;;;;;;7.55;3.83;;;;;;;;;;5054998;28;20104;-78
2021/04/29 18:36:05;;;;;;;7.82;3.80;;;;;;;;;;5055024;28;20082;-78
2021/04/29 18:38:30;;;;;;;7.80;3.88;;;;;;;;;;5046607;28;20048;-79
2021/04/29 18:40:56;;;;;;;10.68;3.97;;;;;;;;;;5046134;28;20029;-79
2021/04/29 18:43:22;;;;;;;8.82;3.47;;;;;;;;;;5043584;28;20040;-79
2021/04/29 18:45:50;;;;;;;5.72;3.33;;;;;;;;;;5042619;28;20029;-80
2021/04/29 18:48:20;;;;;;;6.50;3.47;;;;;;;;;;5042316;28;20021;-79
2021/04/29 18:50:45;;;;;;;9.75;3.40;;;;;;;;;;5054708;28;20130;-79
2021/04/29 18:53:11;;;;;;;9.05;3.30;;;;;;;;;;5058671;23;20562;-79
2021/04/29 18:55:36;;;;;;;7.68;3.55;;;;;;;;;;5028857;28;20044;-78
2021/04/29 18:58:02;;;;;;;6.97;3.28;;;;;;;;;;5034690;28;20025;-79
2021/04/29 19:00:28;;;;;;;6.75;3.10;;;;;;;;;;5028474;28;20025;-78
2021/04/29 19:02:53;;;;;;;5.47;2.88;;;;;;;;;;5044392;28;20041;-79
2021/04/29 19:05:19;;;;;;;3.40;2.40;;;;;;;;;;5034764;28;20101;-78
2021/04/29 19:07:44;;;;;;;6.15;2.90;;;;;;;;;;5047626;28;20028;-78
2021/04/29 19:10:11;;;;;;;7.88;3.20;;;;;;;;;;4997097;28;20349;-77
2021/04/29 19:12:37;;;;;;;7.05;3.20;;;;;;;;;;5028211;28;20030;-76
2021/04/29 19:15:12;;;;;;;8.68;2.92;;;;;;;;;;5022621;28;20080;-76
2021/04/29 19:17:38;;;;;;;7.65;3.00;;;;;;;;;;5020789;28;20038;-76
2021/04/29 19:20:05;;;;;;;7.45;2.85;;;;;;;;;;5020193;28;20030;-76
2021/04/29 19:22:31;;;;;;;8.70;2.90;;;;;;;;;;5042535;28;20030;-76
2021/04/29 19:24:56;;;;;;;8.57;2.90;;;;;;;;;;5019316;28;20083;-77
2021/04/29 19:27:21;;;;;;;6.95;2.75;;;;;;;;;;5037789;28;20028;-76
2021/04/29 19:29:47;;;;;;;7.03;2.83;;;;;;;;;;5039305;28;20060;-76
2021/04/29 19:32:12;;;;;;;16.20;2.67;;;;;;;;;;5037978;28;20422;-76
2021/04/29 19:34:38;;;;;;;7.93;3.10;;;;;;;;;;5038255;28;20041;-76
2021/04/29 19:37:04;;;;;;;4.15;2.50;;;;;;;;;;5037973;28;20109;-77
2021/04/29 19:39:29;;;;;;;7.78;3.08;;;;;;;;;;5037189;28;20502;-75
2021/04/29 19:41:54;;;;;;;6.78;2.80;;;;;;;;;;5037983;28;20064;-76
2021/04/29 19:44:20;;;;;;;8.25;3.47;;;;;;;;;;5037449;28;20060;-75
2021/04/29 19:46:45;;;;;;;12.57;3.33;;;;;;;;;;5037783;28;20385;-75
2021/04/29 19:49:11;;;;;;;7.57;3.03;;;;;;;;;;5037702;28;20032;-75
2021/04/29 19:51:36;;;;;;;9.98;3.00;;;;;;;;;;5037166;28;20471;-75
2021/04/29 19:54:03;;;;;;;6.85;2.95;;;;;;;;;;5037916;28;20046;-75
2021/04/29 19:56:28;;;;;;;9.05;3.08;;;;;;;;;;5039717;28;20032;-75
2021/04/29 19:58:54;;;;;;;6.53;2.70;;;;;;;;;;5037122;28;20037;-75
2021/04/29 20:01:19;;;;;;;6.63;2.67;;;;;;;;;;5037430;28;20452;-74
2021/04/29 20:03:44;;;;;;;7.28;3.00;;;;;;;;;;5037723;28;20021;-76
2021/04/29 20:06:10;;;;;;;6.88;2.70;;;;;;;;;;5036632;28;20033;-77
2021/04/29 20:08:35;;;;;;;7.03;2.67;;;;;;;;;;5037159;28;20030;-77
2021/04/29 20:11:01;;;;;;;4.88;2.72;;;;;;;;;;5037435;28;20033;-75
2021/04/29 20:13:27;;;;;;;8.95;3.13;;;;;;;;;;5037196;28;20079;-75
2021/04/29 20:15:52;;;;;;;3.35;2.50;;;;;;;;;;5045867;28;20021;-75
2021/04/29 20:18:18;;;;;;;12.68;2.65;;;;;;;;;;5040053;28;20430;-75
2021/04/29 20:20:43;;;;;;;5.00;2.72;;;;;;;;;;5037456;28;20080;-75
2021/04/29 20:23:08;;;;;;;4.80;2.80;;;;;;;;;;5037682;28;20056;-74
2021/04/29 20:25:34;;;;;;;4.47;2.55;;;;;;;;;;5037689;28;20030;-77
2021/04/29 20:28:00;;;;;;;15.82;3.08;;;;;;;;;;5037437;28;20464;-76
2021/04/29 20:30:25;;;;;;;4.95;2.30;;;;;;;;;;5037520;28;20068;-74
2021/04/29 20:32:51;;;;;;;4.22;2.47;;;;;;;;;;5033930;28;20197;-75
2021/04/29 20:35:16;;;;;;;6.75;2.38;;;;;;;;;;5037858;28;20032;-75
2021/04/29 20:37:41;;;;;;;4.32;2.88;;;;;;;;;;5036508;28;20030;-76
2021/04/29 20:40:08;;;;;;;9.27;2.78;;;;;;;;;;5036456;28;20042;-76
2021/04/29 20:42:34;;;;;;;5.50;2.60;;;;;;;;;;5036621;28;20049;-75
2021/04/29 20:44:59;;;;;;;8.40;2.50;;;;;;;;;;5036432;28;20037;-77
2021/04/29 20:47:25;;;;;;;5.75;2.50;;;;;;;;;;5036634;28;20018;-76
2021/04/29 20:49:51;;;;;;;17.63;3.97;;;;;;;;;;5035573;28;20288;-73
2021/04/29 20:52:16;;;;;;;32.42;3.78;;;;;;;;;;5036067;28;20454;-72
2021/04/29 20:54:42;;;;;;;15.40;3.92;;;;;;;;;;5034555;28;20053;-72
2021/04/29 20:57:07;;;;;;;15.68;3.42;;;;;;;;;;5039289;28;57700;-73
2021/04/29 20:59:32;;;;;;;25.02;4.18;;;;;;;;;;5036960;28;20481;-73
2021/04/29 21:01:58;;;;;;;21.67;4.30;;;;;;;;;;5036725;28;20336;-74
2021/04/29 21:04:23;;;;;;;13.80;3.67;;;;;;;;;;5037462;28;20044;-72
2021/04/29 21:13:12;;;;;;;13.70;4.05;;;;;;;;;;17705891;27;59407;-73
2021/04/29 21:21:32;;;;;;;8.93;4.05;;;;;;;;;;17575778;27;62040;-73
2021/04/29 21:29:53;;;;;;;13.98;4.18;;;;;;;;;;17564648;28;20035;-73
2021/04/29 21:38:14;;;;;;;13.02;4.00;;;;;;;;;;17568579;28;20044;-74
2021/04/29 21:46:34;;;;;;;9.88;3.15;;;;;;;;;;17565472;28;20028;-75
2021/04/29 21:54:55;;;;;;;17.30;3.95;;;;;;;;;;17566362;28;20404;-75
2021/04/29 22:03:16;;;;;;;14.60;3.80;;;;;;;;;;17558868;28;20021;-75
2021/04/29 22:11:37;;;;;;;9.95;3.67;;;;;;;;;;17557455;28;20055;-73
2021/04/29 22:19:57;;;;;;;9.85;3.80;;;;;;;;;;17553580;28;20044;-74
2021/04/29 22:28:18;;;;;;;12.90;3.58;;;;;;;;;;17519229;28;20043;-73
2021/04/29 22:36:38;;;;;;;15.32;3.53;;;;;;;;;;17525724;28;20136;-74
2021/04/29 22:44:58;;;;;;;11.15;3.58;;;;;;;;;;17504688;28;20036;-73
2021/04/29 22:53:19;;;;;;;8.57;3.15;;;;;;;;;;17511975;28;20032;-73
2021/04/29 23:01:39;;;;;;;5.87;2.73;;;;;;;;;;17515619;28;20035;-72
2021/04/29 23:10:00;;;;;;;5.97;2.90;;;;;;;;;;17521441;28;20052;-73
2021/04/29 23:18:20;;;;;;;8.52;3.03;;;;;;;;;;17536310;28;20044;-73
2021/04/29 23:26:40;;;;;;;7.70;2.80;;;;;;;;;;17509631;28;20028;-75
2021/04/29 23:35:01;;;;;;;5.75;2.38;;;;;;;;;;17525226;28;20029;-73
2021/04/29 23:43:22;;;;;;;6.20;2.70;;;;;;;;;;17554943;28;20468;-73
2021/04/29 23:51:42;;;;;;;8.65;2.80;;;;;;;;;;17550412;28;20447;-72
